GLO1286 SBBR-SBGL
Flight info
| Callsign | GLO1286 |
|---|---|
| Flight time | N/A |
| Altitude | FL330 |
| Route | GEPMO UZ6 TOKIM |
| Aircraft | B738/M-S/N |
Departure
| Time | 2026-05-03 23:15 |
|---|---|
| Airport | Presidente Juscelino Kubitschek International Airport (SBBR) |
Arrival
| Time | N/A |
|---|---|
| Airport | Rio Galeão – Tom Jobim International Airport (SBGL) |
| Time | Latitude | Longitude | Altitude | Speed | Heading |
|---|---|---|---|---|---|
| 2026-05-03 22:29 | -15.86840 | -47.92029 | 3487 ft | 0 kts | 266° |
| 2026-05-03 23:04 | -15.86840 | -47.92028 | 3487 ft | 1 kts | 266° |
| 2026-05-03 23:05 | -15.86839 | -47.92015 | 3487 ft | 2 kts | 266° |
| 2026-05-03 23:05 | -15.86838 | -47.91995 | 3487 ft | 3 kts | 266° |
| 2026-05-03 23:05 | -15.86836 | -47.91975 | 3487 ft | 3 kts | 266° |
| 2026-05-03 23:05 | -15.86835 | -47.91953 | 3487 ft | 3 kts | 266° |
| 2026-05-03 23:06 | -15.86833 | -47.91932 | 3487 ft | 3 kts | 266° |
| 2026-05-03 23:06 | -15.86832 | -47.91913 | 3487 ft | 0 kts | 266° |
| 2026-05-03 23:06 | -15.86832 | -47.91914 | 3487 ft | 0 kts | 266° |
| 2026-05-03 23:06 | -15.86831 | -47.91920 | 3487 ft | 1 kts | 285° |
| 2026-05-03 23:07 | -15.86823 | -47.91928 | 3487 ft | 2 kts | 324° |
| 2026-05-03 23:07 | -15.86807 | -47.91928 | 3487 ft | 3 kts | 21° |
| 2026-05-03 23:07 | -15.86792 | -47.91911 | 3487 ft | 4 kts | 49° |
| 2026-05-03 23:07 | -15.86769 | -47.91888 | 3487 ft | 5 kts | 32° |
| 2026-05-03 23:08 | -15.86734 | -47.91865 | 3487 ft | 7 kts | 32° |
| 2026-05-03 23:08 | -15.86688 | -47.91837 | 3487 ft | 8 kts | 28° |
| 2026-05-03 23:08 | -15.86631 | -47.91825 | 3487 ft | 9 kts | 359° |
| 2026-05-03 23:08 | -15.86564 | -47.91831 | 3487 ft | 11 kts | 355° |
| 2026-05-03 23:09 | -15.86486 | -47.91827 | 3487 ft | 12 kts | 22° |
| 2026-05-03 23:09 | -15.86458 | -47.91760 | 3487 ft | 10 kts | 88° |
| 2026-05-03 23:09 | -15.86455 | -47.91682 | 3487 ft | 11 kts | 86° |
| 2026-05-03 23:09 | -15.86451 | -47.91597 | 3487 ft | 12 kts | 86° |
| 2026-05-03 23:10 | -15.86445 | -47.91504 | 3487 ft | 13 kts | 86° |
| 2026-05-03 23:10 | -15.86439 | -47.91407 | 3487 ft | 14 kts | 86° |
| 2026-05-03 23:10 | -15.86429 | -47.91307 | 3487 ft | 13 kts | 86° |
| 2026-05-03 23:10 | -15.86422 | -47.91211 | 3487 ft | 14 kts | 86° |
| 2026-05-03 23:11 | -15.86416 | -47.91110 | 3487 ft | 14 kts | 86° |
| 2026-05-03 23:11 | -15.86409 | -47.91005 | 3487 ft | 15 kts | 86° |
| 2026-05-03 23:11 | -15.86403 | -47.90894 | 3487 ft | 16 kts | 86° |
| 2026-05-03 23:11 | -15.86396 | -47.90782 | 3487 ft | 16 kts | 86° |
| 2026-05-03 23:12 | -15.86389 | -47.90665 | 3487 ft | 16 kts | 86° |
| 2026-05-03 23:12 | -15.86381 | -47.90546 | 3487 ft | 17 kts | 86° |
| 2026-05-03 23:12 | -15.86374 | -47.90424 | 3487 ft | 17 kts | 86° |
| 2026-05-03 23:12 | -15.86367 | -47.90301 | 3487 ft | 17 kts | 86° |
| 2026-05-03 23:13 | -15.86359 | -47.90174 | 3487 ft | 18 kts | 86° |
| 2026-05-03 23:13 | -15.86345 | -47.90050 | 3487 ft | 17 kts | 86° |
| 2026-05-03 23:13 | -15.86338 | -47.89923 | 3487 ft | 18 kts | 86° |
| 2026-05-03 23:13 | -15.86332 | -47.89801 | 3487 ft | 11 kts | 87° |
| 2026-05-03 23:14 | -15.86298 | -47.89747 | 3487 ft | 9 kts | 5° |
| 2026-05-03 23:14 | -15.86238 | -47.89757 | 3487 ft | 10 kts | 350° |
| 2026-05-03 23:14 | -15.86183 | -47.89793 | 3487 ft | 10 kts | 302° |
| 2026-05-03 23:14 | -15.86172 | -47.89866 | 3487 ft | 16 kts | 265° |
| 2026-05-03 23:15 | -15.86197 | -47.90238 | 3487 ft | 92 kts | 265° |
| 2026-05-03 23:15 | -15.86257 | -47.91145 | 3487 ft | 158 kts | 265° |
| 2026-05-03 23:15 | -15.86366 | -47.92462 | 3531 ft | 199 kts | 257° |
| 2026-05-03 23:15 | -15.86500 | -47.93750 | 4739 ft | 171 kts | 259° |
| 2026-05-03 23:16 | -15.86946 | -47.94954 | 5405 ft | 192 kts | 232° |
| 2026-05-03 23:16 | -15.88101 | -47.95709 | 6014 ft | 205 kts | 192° |
| 2026-05-03 23:16 | -15.89539 | -47.95862 | 6795 ft | 219 kts | 180° |
| 2026-05-03 23:16 | -15.91028 | -47.95916 | 7349 ft | 243 kts | 179° |
| 2026-05-03 23:17 | -15.92549 | -47.95960 | 7832 ft | 265 kts | 179° |
| 2026-05-03 23:17 | -15.94531 | -47.96020 | 8656 ft | 280 kts | 179° |
| 2026-05-03 23:17 | -15.96500 | -47.96080 | 9380 ft | 284 kts | 180° |
| 2026-05-03 23:17 | -15.98473 | -47.96139 | 9817 ft | 285 kts | 180° |
| 2026-05-03 23:18 | -16.00450 | -47.96199 | 9982 ft | 285 kts | 180° |
| 2026-05-03 23:18 | -16.02428 | -47.96259 | 10000 ft | 284 kts | 180° |
| 2026-05-03 23:18 | -16.04417 | -47.96322 | 10008 ft | 296 kts | 180° |
| 2026-05-03 23:18 | -16.06554 | -47.96388 | 10004 ft | 314 kts | 180° |
| 2026-05-03 23:19 | -16.08743 | -47.96470 | 10074 ft | 319 kts | 178° |
| 2026-05-03 23:19 | -16.10948 | -47.96177 | 11006 ft | 318 kts | 166° |
| 2026-05-03 23:19 | -16.13088 | -47.95643 | 12160 ft | 319 kts | 166° |
| 2026-05-03 23:19 | -16.15210 | -47.94908 | 12971 ft | 326 kts | 151° |
| 2026-05-03 23:20 | -16.16970 | -47.93438 | 13880 ft | 329 kts | 136° |
| 2026-05-03 23:20 | -16.18553 | -47.91685 | 14667 ft | 336 kts | 133° |
| 2026-05-03 23:20 | -16.20141 | -47.89884 | 15384 ft | 344 kts | 131° |
| 2026-05-03 23:20 | -16.21789 | -47.88027 | 16060 ft | 352 kts | 131° |
| 2026-05-03 23:21 | -16.23446 | -47.86134 | 16737 ft | 360 kts | 130° |
| 2026-05-03 23:21 | -16.25121 | -47.84175 | 17422 ft | 366 kts | 130° |
| 2026-05-03 23:21 | -16.26819 | -47.82187 | 18120 ft | 371 kts | 131° |
| 2026-05-03 23:21 | -16.28534 | -47.80180 | 18835 ft | 375 kts | 131° |
| 2026-05-03 23:22 | -16.32027 | -47.76090 | 20230 ft | 382 kts | 131° |
| 2026-05-03 23:22 | -16.33785 | -47.74000 | 20844 ft | 386 kts | 131° |
| 2026-05-03 23:22 | -16.35548 | -47.71884 | 21453 ft | 391 kts | 131° |
| 2026-05-03 23:23 | -16.37355 | -47.69759 | 22047 ft | 395 kts | 131° |
| 2026-05-03 23:23 | -16.39159 | -47.67598 | 22625 ft | 399 kts | 130° |
| 2026-05-03 23:23 | -16.40972 | -47.65420 | 23255 ft | 402 kts | 131° |
| 2026-05-03 23:23 | -16.42835 | -47.63230 | 23742 ft | 407 kts | 131° |
| 2026-05-03 23:24 | -16.44700 | -47.60991 | 24282 ft | 411 kts | 130° |
| 2026-05-03 23:24 | -16.46581 | -47.58738 | 24791 ft | 415 kts | 131° |
| 2026-05-03 23:24 | -16.48493 | -47.56483 | 25282 ft | 419 kts | 131° |
| 2026-05-03 23:24 | -16.50406 | -47.54175 | 25787 ft | 422 kts | 130° |
| 2026-05-03 23:25 | -16.52306 | -47.51883 | 26409 ft | 421 kts | 130° |
| 2026-05-03 23:25 | -16.54228 | -47.49578 | 27026 ft | 421 kts | 130° |
| 2026-05-03 23:25 | -16.56157 | -47.47296 | 27643 ft | 420 kts | 131° |
| 2026-05-03 23:25 | -16.58089 | -47.45020 | 28256 ft | 420 kts | 130° |
| 2026-05-03 23:26 | -16.60019 | -47.42742 | 28759 ft | 422 kts | 131° |
| 2026-05-03 23:26 | -16.61962 | -47.40450 | 29345 ft | 422 kts | 131° |
| 2026-05-03 23:26 | -16.63890 | -47.38171 | 29960 ft | 421 kts | 131° |
| 2026-05-03 23:26 | -16.65824 | -47.35887 | 30550 ft | 421 kts | 130° |
| 2026-05-03 23:27 | -16.67756 | -47.33599 | 31140 ft | 420 kts | 130° |
| 2026-05-03 23:27 | -16.69649 | -47.31308 | 31713 ft | 419 kts | 129° |
| 2026-05-03 23:27 | -16.71568 | -47.29015 | 32290 ft | 418 kts | 130° |
| 2026-05-03 23:27 | -16.73475 | -47.26739 | 32802 ft | 419 kts | 129° |
| 2026-05-03 23:28 | -16.75398 | -47.24427 | 32956 ft | 428 kts | 129° |
| 2026-05-03 23:28 | -16.77369 | -47.22049 | 32998 ft | 438 kts | 129° |
| 2026-05-03 23:28 | -16.81417 | -47.17152 | 33006 ft | 457 kts | 131° |
| 2026-05-03 23:29 | -16.85723 | -47.12160 | 33006 ft | 472 kts | 136° |
| 2026-05-03 23:29 | -16.90574 | -47.07419 | 33005 ft | 484 kts | 138° |
| 2026-05-03 23:30 | -16.95575 | -47.02595 | 33005 ft | 494 kts | 137° |
| 2026-05-03 23:30 | -17.00635 | -46.97703 | 32999 ft | 498 kts | 139° |
| 2026-05-03 23:31 | -17.05673 | -46.92831 | 32999 ft | 494 kts | 139° |
| 2026-05-03 23:31 | -17.10682 | -46.87983 | 33021 ft | 495 kts | 139° |
| 2026-05-03 23:32 | -17.15662 | -46.83271 | 33020 ft | 492 kts | 144° |
| 2026-05-03 23:32 | -17.21269 | -46.79319 | 33003 ft | 490 kts | 151° |
| 2026-05-03 23:33 | -17.27153 | -46.75680 | 33001 ft | 490 kts | 153° |
| 2026-05-03 23:33 | -17.30993 | -46.73363 | 33000 ft | 490 kts | 152° |
| 2026-05-03 23:34 | -17.36863 | -46.69738 | 33001 ft | 490 kts | 152° |
| 2026-05-03 23:34 | -17.42403 | -46.66343 | 33001 ft | 490 kts | 152° |
| 2026-05-03 23:35 | -17.46373 | -46.63905 | 33000 ft | 490 kts | 152° |
| 2026-05-03 23:35 | -17.52031 | -46.60413 | 32999 ft | 490 kts | 152° |
| 2026-05-03 23:36 | -17.55383 | -46.58317 | 32989 ft | 490 kts | 152° |
| 2026-05-03 23:36 | -17.60901 | -46.54877 | 32992 ft | 489 kts | 152° |
| 2026-05-03 23:37 | -17.65825 | -46.51849 | 32935 ft | 491 kts | 152° |
| 2026-05-03 23:37 | -17.68571 | -46.50145 | 33214 ft | 477 kts | 152° |
| 2026-05-03 23:37 | -17.71469 | -46.48391 | 33330 ft | 480 kts | 154° |
| 2026-05-03 23:38 | -17.74379 | -46.46647 | 33097 ft | 489 kts | 153° |
| 2026-05-03 23:38 | -17.77342 | -46.44855 | 33045 ft | 491 kts | 153° |
| 2026-05-03 23:38 | -17.83228 | -46.41287 | 33002 ft | 489 kts | 153° |
| 2026-05-03 23:39 | -17.89141 | -46.37656 | 33001 ft | 490 kts | 153° |
| 2026-05-03 23:39 | -17.95007 | -46.34026 | 33027 ft | 492 kts | 153° |
| 2026-05-03 23:40 | -18.00883 | -46.30374 | 33028 ft | 491 kts | 153° |
| 2026-05-03 23:40 | -18.06769 | -46.26712 | 33029 ft | 491 kts | 153° |
| 2026-05-03 23:41 | -18.12637 | -46.23056 | 33029 ft | 492 kts | 153° |
| 2026-05-03 23:41 | -18.18486 | -46.19410 | 33028 ft | 492 kts | 153° |
| 2026-05-03 23:42 | -18.23494 | -46.16277 | 33040 ft | 493 kts | 153° |
| 2026-05-03 23:42 | -18.29521 | -46.12582 | 33043 ft | 493 kts | 153° |
| 2026-05-03 23:43 | -18.35480 | -46.08876 | 33043 ft | 493 kts | 153° |
| 2026-05-03 23:43 | -18.41371 | -46.05202 | 33043 ft | 493 kts | 153° |
| 2026-05-03 23:44 | -18.47278 | -46.01515 | 33049 ft | 494 kts | 153° |
| 2026-05-03 23:44 | -18.53164 | -45.97817 | 33051 ft | 496 kts | 152° |
| 2026-05-03 23:45 | -18.59097 | -45.94118 | 33051 ft | 495 kts | 153° |
| 2026-05-03 23:45 | -18.64999 | -45.90433 | 33051 ft | 495 kts | 153° |
| 2026-05-03 23:46 | -18.70182 | -45.87189 | 33058 ft | 496 kts | 153° |
| 2026-05-03 23:46 | -18.75739 | -45.83714 | 33058 ft | 496 kts | 153° |
| 2026-05-03 23:47 | -18.81280 | -45.80244 | 33059 ft | 496 kts | 153° |
| 2026-05-03 23:47 | -18.87194 | -45.76575 | 33059 ft | 496 kts | 154° |
| 2026-05-03 23:48 | -18.93139 | -45.72917 | 33057 ft | 497 kts | 154° |
| 2026-05-03 23:48 | -18.99030 | -45.69305 | 33056 ft | 497 kts | 154° |
| 2026-05-03 23:49 | -19.05012 | -45.65650 | 33056 ft | 497 kts | 154° |
| 2026-05-03 23:49 | -19.11001 | -45.62016 | 33056 ft | 497 kts | 154° |
| 2026-05-03 23:50 | -19.15975 | -45.58966 | 33056 ft | 497 kts | 154° |
| 2026-05-03 23:50 | -19.22955 | -45.54712 | 33049 ft | 499 kts | 154° |
| 2026-05-03 23:51 | -19.28971 | -45.51063 | 33049 ft | 499 kts | 154° |
| 2026-05-03 23:51 | -19.34999 | -45.47451 | 33048 ft | 499 kts | 154° |
| 2026-05-03 23:52 | -19.40985 | -45.43752 | 33049 ft | 499 kts | 154° |
| 2026-05-03 23:52 | -19.46931 | -45.40063 | 33054 ft | 498 kts | 154° |
| 2026-05-03 23:53 | -19.52936 | -45.36357 | 33056 ft | 499 kts | 154° |
| 2026-05-03 23:53 | -19.58927 | -45.32658 | 33056 ft | 499 kts | 154° |
| 2026-05-03 23:54 | -19.64905 | -45.28961 | 33056 ft | 499 kts | 154° |
| 2026-05-03 23:54 | -19.70871 | -45.25270 | 33056 ft | 499 kts | 154° |
| 2026-05-03 23:55 | -19.76846 | -45.21573 | 33069 ft | 498 kts | 155° |
| 2026-05-03 23:55 | -19.82440 | -45.18107 | 33071 ft | 497 kts | 154° |
| 2026-05-03 23:56 | -19.87978 | -45.14645 | 33070 ft | 498 kts | 154° |
| 2026-05-03 23:56 | -19.93506 | -45.11186 | 33072 ft | 498 kts | 154° |
| 2026-05-03 23:57 | -19.99443 | -45.07467 | 33081 ft | 497 kts | 155° |
| 2026-05-03 23:57 | -20.05406 | -45.03726 | 33089 ft | 499 kts | 154° |
| 2026-05-03 23:58 | -20.11357 | -44.99990 | 33089 ft | 498 kts | 154° |
| 2026-05-03 23:58 | -20.17324 | -44.96241 | 33089 ft | 498 kts | 154° |
| 2026-05-03 23:59 | -20.23276 | -44.92498 | 33100 ft | 499 kts | 155° |
| 2026-05-03 23:59 | -20.29254 | -44.88737 | 33104 ft | 500 kts | 155° |
| 2026-05-04 00:00 | -20.35219 | -44.84981 | 33104 ft | 500 kts | 155° |
| 2026-05-04 00:00 | -20.41189 | -44.81219 | 33104 ft | 500 kts | 155° |
| 2026-05-04 00:01 | -20.47163 | -44.77452 | 33104 ft | 500 kts | 155° |
| 2026-05-04 00:01 | -20.53143 | -44.73679 | 33119 ft | 502 kts | 155° |
| 2026-05-04 00:02 | -20.59152 | -44.69882 | 33121 ft | 502 kts | 155° |
| 2026-05-04 00:02 | -20.65151 | -44.66091 | 33121 ft | 502 kts | 155° |
| 2026-05-04 00:03 | -20.70356 | -44.62797 | 33119 ft | 502 kts | 150° |
| 2026-05-04 00:03 | -20.76624 | -44.58850 | 33144 ft | 504 kts | 155° |
| 2026-05-04 00:04 | -20.82216 | -44.55306 | 33146 ft | 503 kts | 155° |
| 2026-05-04 00:04 | -20.88318 | -44.51435 | 33147 ft | 503 kts | 155° |
| 2026-05-04 00:05 | -20.94335 | -44.47663 | 33147 ft | 502 kts | 156° |
| 2026-05-04 00:05 | -20.98019 | -44.45387 | 33136 ft | 503 kts | 151° |
| 2026-05-04 00:06 | -21.02643 | -44.42431 | 33168 ft | 502 kts | 156° |
| 2026-05-04 00:06 | -21.08653 | -44.38659 | 33172 ft | 503 kts | 155° |
| 2026-05-04 00:07 | -21.14641 | -44.34842 | 33172 ft | 503 kts | 155° |
| 2026-05-04 00:07 | -21.20674 | -44.31003 | 33173 ft | 504 kts | 155° |
| 2026-05-04 00:08 | -21.26688 | -44.27164 | 33196 ft | 508 kts | 155° |
| 2026-05-04 00:08 | -21.32759 | -44.23284 | 33196 ft | 507 kts | 155° |
| 2026-05-04 00:09 | -21.38749 | -44.19429 | 33194 ft | 488 kts | 155° |
| 2026-05-04 00:09 | -21.41480 | -44.17659 | 33129 ft | 469 kts | 155° |
| 2026-05-04 00:09 | -21.44288 | -44.15826 | 33024 ft | 452 kts | 155° |
| 2026-05-04 00:10 | -21.46966 | -44.14094 | 32478 ft | 447 kts | 156° |
| 2026-05-04 00:10 | -21.49602 | -44.12403 | 31773 ft | 448 kts | 156° |
| 2026-05-04 00:10 | -21.52281 | -44.10663 | 31311 ft | 440 kts | 156° |
| 2026-05-04 00:10 | -21.54866 | -44.08985 | 30642 ft | 433 kts | 156° |
| 2026-05-04 00:11 | -21.57407 | -44.07303 | 29969 ft | 428 kts | 155° |
| 2026-05-04 00:11 | -21.59973 | -44.05745 | 29377 ft | 417 kts | 160° |
| 2026-05-04 00:11 | -21.62570 | -44.04455 | 28762 ft | 408 kts | 163° |
| 2026-05-04 00:11 | -21.65148 | -44.03237 | 28150 ft | 403 kts | 163° |
| 2026-05-04 00:12 | -21.67671 | -44.01998 | 27542 ft | 399 kts | 161° |
| 2026-05-04 00:12 | -21.70158 | -44.00734 | 26938 ft | 394 kts | 161° |
| 2026-05-04 00:12 | -21.72626 | -43.99476 | 26330 ft | 389 kts | 161° |
| 2026-05-04 00:12 | -21.75048 | -43.98236 | 25719 ft | 384 kts | 161° |
| 2026-05-04 00:13 | -21.77414 | -43.97023 | 25385 ft | 372 kts | 161° |
| 2026-05-04 00:13 | -21.79754 | -43.95822 | 25263 ft | 377 kts | 161° |
| 2026-05-04 00:13 | -21.82054 | -43.94633 | 25227 ft | 383 kts | 160° |
| 2026-05-04 00:13 | -21.84524 | -43.93360 | 25224 ft | 381 kts | 160° |
| 2026-05-04 00:14 | -21.86888 | -43.92125 | 25224 ft | 381 kts | 160° |
| 2026-05-04 00:14 | -21.89280 | -43.90872 | 25224 ft | 381 kts | 160° |
| 2026-05-04 00:14 | -21.91603 | -43.89663 | 25224 ft | 381 kts | 160° |
| 2026-05-04 00:14 | -21.94026 | -43.88406 | 25224 ft | 381 kts | 160° |
| 2026-05-04 00:15 | -21.96422 | -43.87167 | 25224 ft | 381 kts | 161° |
| 2026-05-04 00:15 | -21.98807 | -43.85934 | 25243 ft | 381 kts | 161° |
| 2026-05-04 00:15 | -22.01164 | -43.84713 | 25247 ft | 381 kts | 161° |
| 2026-05-04 00:15 | -22.03569 | -43.83471 | 25106 ft | 378 kts | 161° |
| 2026-05-04 00:16 | -22.05902 | -43.82265 | 24600 ft | 371 kts | 161° |
| 2026-05-04 00:16 | -22.07431 | -43.81475 | 24225 ft | 368 kts | 160° |
| 2026-05-04 00:16 | -22.09279 | -43.80517 | 23746 ft | 365 kts | 160° |
| 2026-05-04 00:16 | -22.11311 | -43.79468 | 23243 ft | 361 kts | 160° |
| 2026-05-04 00:17 | -22.13602 | -43.78280 | 22543 ft | 361 kts | 160° |
| 2026-05-04 00:17 | -22.15863 | -43.77112 | 21959 ft | 357 kts | 159° |
| 2026-05-04 00:17 | -22.18084 | -43.75958 | 21384 ft | 354 kts | 159° |
| 2026-05-04 00:17 | -22.20285 | -43.74818 | 20809 ft | 350 kts | 159° |
| 2026-05-04 00:18 | -22.22477 | -43.73683 | 20231 ft | 347 kts | 156° |
| 2026-05-04 00:18 | -22.24513 | -43.72630 | 19689 ft | 346 kts | 159° |
| 2026-05-04 00:18 | -22.26444 | -43.71648 | 19176 ft | 344 kts | 150° |
| 2026-05-04 00:18 | -22.28616 | -43.70528 | 18594 ft | 342 kts | 150° |
| 2026-05-04 00:19 | -22.30750 | -43.69416 | 18020 ft | 341 kts | 151° |
| 2026-05-04 00:19 | -22.32881 | -43.68312 | 17444 ft | 339 kts | 152° |
| 2026-05-04 00:19 | -22.35046 | -43.67190 | 16856 ft | 338 kts | 153° |
| 2026-05-04 00:19 | -22.36974 | -43.66193 | 16332 ft | 337 kts | 153° |
| 2026-05-04 00:20 | -22.39239 | -43.65021 | 15712 ft | 335 kts | 154° |
| 2026-05-04 00:20 | -22.41326 | -43.63941 | 15138 ft | 333 kts | 154° |
| 2026-05-04 00:20 | -22.42968 | -43.63089 | 14684 ft | 331 kts | 154° |
| 2026-05-04 00:20 | -22.44702 | -43.62194 | 14205 ft | 330 kts | 155° |
| 2026-05-04 00:21 | -22.46821 | -43.61115 | 13615 ft | 329 kts | 155° |
| 2026-05-04 00:21 | -22.48484 | -43.60254 | 13148 ft | 327 kts | 155° |
| 2026-05-04 00:21 | -22.50496 | -43.59199 | 12581 ft | 325 kts | 155° |
| 2026-05-04 00:21 | -22.52642 | -43.58065 | 11969 ft | 323 kts | 155° |
| 2026-05-04 00:22 | -22.54703 | -43.56979 | 11378 ft | 320 kts | 155° |
| 2026-05-04 00:22 | -22.56713 | -43.55952 | 10801 ft | 318 kts | 156° |
| 2026-05-04 00:22 | -22.58639 | -43.54961 | 10303 ft | 314 kts | 155° |
| 2026-05-04 00:22 | -22.60605 | -43.53922 | 10044 ft | 301 kts | 155° |
| 2026-05-04 00:23 | -22.62434 | -43.52952 | 9999 ft | 286 kts | 154° |
| 2026-05-04 00:23 | -22.63972 | -43.51940 | 10000 ft | 280 kts | 145° |
| 2026-05-04 00:23 | -22.65510 | -43.50431 | 9995 ft | 286 kts | 132° |
| 2026-05-04 00:23 | -22.66665 | -43.48671 | 10001 ft | 285 kts | 123° |
| 2026-05-04 00:24 | -22.67608 | -43.46799 | 9999 ft | 285 kts | 115° |
| 2026-05-04 00:24 | -22.68268 | -43.44771 | 10000 ft | 286 kts | 105° |
| 2026-05-04 00:24 | -22.68653 | -43.43249 | 9990 ft | 285 kts | 110° |
| 2026-05-04 00:24 | -22.69581 | -43.41324 | 9982 ft | 281 kts | 129° |
| 2026-05-04 00:25 | -22.70538 | -43.40326 | 10009 ft | 280 kts | 143° |
| 2026-05-04 00:25 | -22.71652 | -43.39644 | 9995 ft | 276 kts | 159° |